createdAt,value
2019-04-05T00:04:26.534Z,5.53
2019-04-05T00:09:27.920Z,4.40
2019-04-05T00:14:29.285Z,5.50
2019-04-05T00:19:30.721Z,5.73
2019-04-05T00:24:32.191Z,5.97
2019-04-05T00:29:34.322Z,4.80
2019-04-05T00:34:35.723Z,5.30
2019-04-05T00:39:37.181Z,6.10
2019-04-05T00:44:38.593Z,5.57
2019-04-05T00:49:40.063Z,5.60
2019-04-05T00:54:41.490Z,6.10
2019-04-05T00:59:42.955Z,6.10
2019-04-05T01:04:51.676Z,5.50
2019-04-05T01:09:53.085Z,6.33
2019-04-05T01:14:54.513Z,6.27
2019-04-05T01:19:55.868Z,6.40
2019-04-05T01:24:57.260Z,5.83
2019-04-05T01:29:58.700Z,5.67
2019-04-05T01:35:00.089Z,5.70
2019-04-05T01:40:01.503Z,6.50
2019-04-05T01:45:05.371Z,6.13
2019-04-05T01:50:06.788Z,6.30
2019-04-05T01:55:09.005Z,5.03
2019-04-05T02:00:10.433Z,5.83
2019-04-05T02:05:11.877Z,5.40
2019-04-05T02:10:14.433Z,6.27
2019-04-05T02:15:30.751Z,5.47
2019-04-05T02:20:32.161Z,5.87
2019-04-05T02:25:40.850Z,6.33
2019-04-05T02:30:42.213Z,6.17
2019-04-05T02:35:43.702Z,6.37
2019-04-05T02:40:45.157Z,6.17
2019-04-05T02:45:46.588Z,6.97
2019-04-05T02:50:49.866Z,5.90
2019-04-05T02:56:02.567Z,6.90
2019-04-05T03:01:00.432Z,7.07
2019-04-05T03:06:02.216Z,6.90
2019-04-05T03:11:03.822Z,6.97
2019-04-05T03:16:05.395Z,7.33
2019-04-05T03:21:08.210Z,7.13
2019-04-05T03:26:10.266Z,6.90
2019-04-05T03:31:11.754Z,7.80
2019-04-05T03:36:13.222Z,7.80
2019-04-05T03:41:14.622Z,7.53
2019-04-05T03:46:16.059Z,7.63
2019-04-05T03:51:17.563Z,8.63
2019-04-05T03:56:19.007Z,8.63
2019-04-05T04:01:20.483Z,8.80
2019-04-05T04:06:21.901Z,8.20
2019-04-05T04:11:23.361Z,8.17
2019-04-05T04:16:24.779Z,8.33
2019-04-05T04:21:30.888Z,8.90
2019-04-05T04:26:32.316Z,7.97
2019-04-05T04:31:34.621Z,8.40
2019-04-05T04:36:36.101Z,8.10
2019-04-05T04:41:37.604Z,8.03
2019-04-05T04:46:39.732Z,8.77
2019-04-05T04:51:41.259Z,8.83
2019-04-05T04:56:42.771Z,9.83
2019-04-05T05:01:44.156Z,9.07
2019-04-05T05:06:45.722Z,9.13
2019-04-05T05:11:47.268Z,9.50
2019-04-05T05:16:48.742Z,9.57
2019-04-05T05:21:50.173Z,9.87
2019-04-05T05:26:52.371Z,11.47
2019-04-05T05:31:54.584Z,10.43
2019-04-05T05:36:56.025Z,10.93
2019-04-05T05:41:58.185Z,10.43
2019-04-05T05:46:59.681Z,12.63
2019-04-05T05:52:01.907Z,10.60
2019-04-05T05:57:03.282Z,9.57
2019-04-05T06:02:07.160Z,11.03
2019-04-05T06:07:06.362Z,11.47
2019-04-05T06:12:07.801Z,11.90
2019-04-05T06:17:09.155Z,11.40
2019-04-05T06:22:10.786Z,11.53
2019-04-05T06:27:13.337Z,11.10
2019-04-05T06:32:16.492Z,10.47
2019-04-05T06:37:18.885Z,10.93
2019-04-05T06:42:20.263Z,11.00
2019-04-05T06:47:21.665Z,12.60
2019-04-05T06:52:23.799Z,10.40
2019-04-05T06:57:25.216Z,11.73
2019-04-05T07:02:27.389Z,11.43
2019-04-05T07:07:29.537Z,11.97
2019-04-05T07:12:30.932Z,10.97
2019-04-05T07:17:32.286Z,11.13
2019-04-05T07:22:39.146Z,11.67
2019-04-05T07:27:35.902Z,12.20
2019-04-05T07:32:37.339Z,11.47
2019-04-05T07:37:39.509Z,10.57
2019-04-05T07:42:41.634Z,11.73
2019-04-05T07:47:43.001Z,12.67
2019-04-05T07:52:44.383Z,12.50
2019-04-05T07:57:45.866Z,12.00
2019-04-05T08:02:47.317Z,11.37
2019-04-05T08:07:48.771Z,11.27
2019-04-05T08:12:50.152Z,11.80
2019-04-05T08:17:51.548Z,11.73
2019-04-05T08:22:52.931Z,10.97
2019-04-05T08:27:54.353Z,11.17
2019-04-05T08:32:55.720Z,10.07
2019-04-05T08:37:57.082Z,9.80
2019-04-05T08:42:58.468Z,10.50
2019-04-05T08:47:59.864Z,10.70
2019-04-05T08:53:01.288Z,9.43
2019-04-05T08:58:06.836Z,9.23
2019-04-05T09:03:11.913Z,9.60
2019-04-05T09:08:12.307Z,8.67
2019-04-05T09:13:13.637Z,10.67
2019-04-05T09:18:15.029Z,9.97
2019-04-05T09:23:16.410Z,9.13
2019-04-05T09:28:17.824Z,9.07
2019-04-05T09:33:19.918Z,9.33
2019-04-05T09:38:21.355Z,8.73
2019-04-05T09:43:22.735Z,8.57
2019-04-05T09:48:24.191Z,9.10
2019-04-05T09:53:26.302Z,9.00
2019-04-05T09:58:27.715Z,8.27
2019-04-05T10:03:29.108Z,7.83
2019-04-05T10:08:31.235Z,7.23
2019-04-05T10:13:32.653Z,7.57
2019-04-05T10:18:33.953Z,7.43
2019-04-05T10:23:35.350Z,6.90
2019-04-05T10:28:36.787Z,7.60
2019-04-05T10:33:38.173Z,6.47
2019-04-05T10:38:39.605Z,7.10
2019-04-05T10:43:40.917Z,7.50
2019-04-05T10:48:42.372Z,7.60
2019-04-05T10:53:43.764Z,8.20
2019-04-05T10:58:45.154Z,7.40
2019-04-05T11:03:47.277Z,8.27
2019-04-05T11:08:48.671Z,7.50
2019-04-05T11:13:50.086Z,8.10
2019-04-05T11:18:51.521Z,7.67
2019-04-05T11:23:55.652Z,7.80
2019-04-05T11:28:55.098Z,7.93
2019-04-05T11:33:56.484Z,6.90
2019-04-05T11:38:57.889Z,8.60
2019-04-05T11:44:00.722Z,8.27
2019-04-05T11:49:03.245Z,7.73
2019-04-05T11:54:02.176Z,10.13
2019-04-05T11:59:03.574Z,8.87
2019-04-05T12:04:05.024Z,9.40
2019-04-05T12:09:06.429Z,9.40
2019-04-05T12:14:07.824Z,8.90
2019-04-05T12:19:09.185Z,8.77
2019-04-05T12:24:10.657Z,9.90
2019-04-05T12:29:12.012Z,9.17
2019-04-05T12:34:14.177Z,9.53
2019-04-05T12:39:15.574Z,10.90
2019-04-05T12:44:16.960Z,9.80
2019-04-05T12:49:18.359Z,9.37
2019-04-05T12:54:19.724Z,8.50
2019-04-05T12:59:21.104Z,9.00
2019-04-05T13:04:22.417Z,9.07
2019-04-05T13:09:24.690Z,8.83
2019-04-05T13:14:26.599Z,9.03
2019-04-05T13:19:28.482Z,8.47
2019-04-05T13:24:28.032Z,7.40
2019-04-05T13:29:29.401Z,6.53
2019-04-05T13:34:30.773Z,7.80
2019-04-05T13:39:32.287Z,8.03
2019-04-05T13:44:33.635Z,6.43
2019-04-05T13:49:35.012Z,7.93
2019-04-05T13:54:36.403Z,9.17
2019-04-05T13:59:37.752Z,10.97
2019-04-05T14:04:39.114Z,9.93
2019-04-05T14:09:40.728Z,10.03
2019-04-05T14:14:42.175Z,9.73
2019-04-05T14:19:43.338Z,10.57
2019-04-05T14:24:44.783Z,10.50
2019-04-05T14:29:47.620Z,9.57
2019-04-05T14:34:47.554Z,10.07
2019-04-05T14:39:48.981Z,9.43
2019-04-05T14:44:50.291Z,10.00
2019-04-05T14:49:51.611Z,9.70
2019-04-05T14:54:52.920Z,9.77
2019-04-05T14:59:54.250Z,9.23
2019-04-05T15:04:55.593Z,8.77
2019-04-05T15:09:56.987Z,9.77
2019-04-05T15:14:58.374Z,9.53
2019-04-05T15:19:59.783Z,9.77
2019-04-05T15:25:01.182Z,8.73
2019-04-05T15:30:02.534Z,9.83
2019-04-05T15:35:04.736Z,10.43
2019-04-05T15:40:06.148Z,9.77
2019-04-05T15:45:08.267Z,9.27
2019-04-05T15:50:09.652Z,9.13
2019-04-05T15:55:11.042Z,9.13
2019-04-05T16:00:13.361Z,10.40
2019-04-05T16:05:14.929Z,9.40
2019-04-05T16:10:17.200Z,10.47
2019-04-05T16:15:20.550Z,10.83
2019-04-05T16:20:22.086Z,11.53
2019-04-05T16:25:24.340Z,10.63
2019-04-05T16:30:25.827Z,11.00
2019-04-05T16:35:28.042Z,9.30
2019-04-05T16:40:31.338Z,11.73
2019-04-05T16:45:30.916Z,10.80
2019-04-05T16:50:32.320Z,10.77
2019-04-05T16:55:33.814Z,13.37
2019-04-05T17:00:35.186Z,13.70
2019-04-05T17:05:37.546Z,12.77
2019-04-05T17:10:50.360Z,14.40
2019-04-05T17:16:02.690Z,14.23
2019-04-05T17:21:14.378Z,14.70
2019-04-05T17:26:15.767Z,15.07
2019-04-05T17:31:17.132Z,13.07
2019-04-05T17:36:18.521Z,14.60
2019-04-05T17:41:25.381Z,14.27
2019-04-05T17:46:29.310Z,14.23
2019-04-05T17:51:32.481Z,11.97
2019-04-05T17:56:33.835Z,14.27
2019-04-05T18:01:35.213Z,13.60
2019-04-05T18:06:36.602Z,13.50
2019-04-05T18:11:38.000Z,16.00
2019-04-05T18:16:39.337Z,14.83
2019-04-05T18:21:41.489Z,16.40
2019-04-05T18:26:42.933Z,16.20
2019-04-05T18:31:44.374Z,16.23
2019-04-05T18:36:45.788Z,15.63
2019-04-05T18:41:47.200Z,16.13
2019-04-05T18:46:52.623Z,18.07
2019-04-05T18:51:55.056Z,16.23
2019-04-05T18:56:57.421Z,17.17
2019-04-05T19:02:01.005Z,16.47
2019-04-05T19:07:04.898Z,17.57
2019-04-05T19:12:07.329Z,16.77
2019-04-05T19:17:23.158Z,15.50
2019-04-05T19:22:19.794Z,16.20
2019-04-05T19:27:42.346Z,17.37
2019-04-05T19:53:11.771Z,16.60
2019-04-05T19:58:17.000Z,17.57
2019-04-05T20:03:19.910Z,17.33
2019-04-05T20:08:22.930Z,16.80
2019-04-05T20:13:25.821Z,16.60
2019-04-05T20:18:27.274Z,16.33
2019-04-05T20:23:30.568Z,15.93
2019-04-05T20:28:33.303Z,16.33
2019-04-05T20:33:38.107Z,15.63
2019-04-05T20:38:42.029Z,16.17
2019-04-05T20:43:46.360Z,15.87
2019-04-05T20:48:51.768Z,17.40
2019-04-05T20:53:56.457Z,16.27
2019-04-05T20:58:58.549Z,16.70
2019-04-05T21:04:01.892Z,16.77
2019-04-05T21:09:04.540Z,16.13
2019-04-05T21:14:10.998Z,15.50
2019-04-05T21:19:14.033Z,16.50
2019-04-05T21:24:35.721Z,18.13
2019-04-05T21:29:27.473Z,15.57
2019-04-05T21:34:28.799Z,15.93
2019-04-05T21:39:30.162Z,14.83
2019-04-05T21:44:31.546Z,14.60
2019-04-05T21:49:32.911Z,15.60
2019-04-05T21:54:34.233Z,15.87
2019-04-05T21:59:35.604Z,14.87
2019-04-05T22:04:37.057Z,17.70
2019-04-05T22:09:39.186Z,16.30
2019-04-05T22:14:40.607Z,15.43
2019-04-05T22:19:42.777Z,18.63
2019-04-05T22:24:44.180Z,17.17
2019-04-05T22:29:45.547Z,17.23
2019-04-05T22:34:46.930Z,16.17
2019-04-05T22:39:48.301Z,17.70
2019-04-05T22:44:49.701Z,15.90
2019-04-05T22:49:51.105Z,16.70
2019-04-05T22:54:52.432Z,15.07
2019-04-05T22:59:53.822Z,15.00
2019-04-05T23:04:55.124Z,18.33
2019-04-05T23:09:56.465Z,16.33
2019-04-05T23:14:57.831Z,15.33
2019-04-05T23:19:59.166Z,15.27
2019-04-05T23:25:02.357Z,16.30
2019-04-05T23:30:04.716Z,16.60
2019-04-05T23:35:07.229Z,15.33
2019-04-05T23:40:08.645Z,17.80
2019-04-05T23:45:10.089Z,15.90
2019-04-05T23:50:12.255Z,16.03
2019-04-05T23:55:13.635Z,15.37
